Time;durP1;ratioP1;P1;durP2;ratioP2;P2;SDS_P1;SDS_P2;PMS_P1;PMS_P2;Temp;Humidity;BMP_temperature;BMP_pressure;BME280_temperature;BME280_humidity;BME280_pressure;Samples;Min_cycle;Max_cycle;Signal;HPM_P1;HPM_P2
2022/12/01 00:00:10;;;;;;;;;;;;;;;8.41;nan;102984.28;5088119;28;19920;-35
2022/12/01 00:02:35;;;;;;;;;;;;;;;8.43;nan;102992.13;5087213;28;19968;-34
2022/12/01 00:05:01;;;;;;;;;;;;;;;8.45;nan;102987.44;5084719;28;19974;-34
2022/12/01 00:07:26;;;;;;;;;;;;;;;8.45;nan;102984.78;5083869;28;19951;-34
2022/12/01 00:12:42;;;;;;;;;;;;;;;8.41;nan;102986.13;5087027;28;19935;-35
2022/12/01 00:15:08;;;;;;;;;;;;;;;8.40;nan;102989.81;5086007;28;19974;-34
2022/12/01 00:17:33;;;;;;;;;;;;;;;8.38;nan;102981.97;5083098;28;19967;-34
2022/12/01 00:19:58;;;;;;;;;;;;;;;8.39;nan;102977.47;5085248;28;20276;-34
2022/12/01 00:22:24;;;;;;;;;;;;;;;8.41;nan;102980.78;5066725;28;19916;-34
2022/12/01 00:24:49;;;;;;;;;;;;;;;8.41;nan;102981.59;5085911;28;19920;-34
2022/12/01 00:27:14;;;;;;;;;;;;;;;8.43;nan;102984.09;5085289;28;20272;-34
2022/12/01 00:29:40;;;;;;;;;;;;;;;8.41;nan;102978.94;5084710;28;19916;-36
2022/12/01 00:32:05;;;;;;;;;;;;;;;8.41;nan;102972.75;5088740;28;19916;-35
2022/12/01 00:34:30;;;;;;;;;;;;;;;8.41;nan;102975.44;5086915;28;20011;-34
2022/12/01 00:36:55;;;;;;;;;;;;;;;8.41;nan;102976.25;5079797;28;19924;-35
2022/12/01 00:39:21;;;;;;;;;;;;;;;8.41;nan;102975.44;5083216;28;20316;-35
2022/12/01 00:41:46;;;;;;;;;;;;;;;8.42;nan;102971.75;5086889;28;19920;-36
2022/12/01 00:44:11;;;;;;;;;;;;;;;8.44;nan;102970.59;5086464;28;19993;-35
2022/12/01 00:46:37;;;;;;;;;;;;;;;8.40;nan;102979.13;5086394;28;19920;-36
2022/12/01 00:49:03;;;;;;;;;;;;;;;8.40;nan;102968.44;5078941;28;19927;-34
2022/12/01 00:51:28;;;;;;;;;;;;;;;8.43;nan;102968.06;5085278;28;19942;-35
2022/12/01 00:53:53;;;;;;;;;;;;;;;8.45;nan;102977.59;5086092;28;19962;-34
2022/12/01 00:56:19;;;;;;;;;;;;;;;8.45;nan;102974.09;5087904;28;20009;-34
2022/12/01 00:58:45;;;;;;;;;;;;;;;8.42;nan;102975.25;5082754;28;20389;-34
2022/12/01 01:01:11;;;;;;;;;;;;;;;8.42;nan;102977.94;5084465;28;19916;-34
2022/12/01 01:03:36;;;;;;;;;;;;;;;8.40;nan;102979.94;5086230;28;19916;-37
2022/12/01 01:06:06;;;;;;;;;;;;;;;8.40;nan;102973.78;5085396;28;19920;-34
2022/12/01 01:08:31;;;;;;;;;;;;;;;8.45;nan;102982.09;5085001;28;19923;-35
2022/12/01 01:10:57;;;;;;;;;;;;;;;8.51;nan;102991.22;5083426;28;19923;-34
2022/12/01 01:13:23;;;;;;;;;;;;;;;8.51;nan;102989.41;5084201;28;19916;-34
2022/12/01 01:15:58;;;;;;;;;;;;;;;8.49;nan;102986.06;5084948;28;20371;-35
2022/12/01 01:18:24;;;;;;;;;;;;;;;8.47;nan;102985.44;5086374;28;19916;-34
2022/12/01 01:21:01;;;;;;;;;;;;;;;8.43;nan;102986.78;5080146;28;19927;-35
2022/12/01 01:23:27;;;;;;;;;;;;;;;8.41;nan;102986.13;5083139;28;20014;-35
2022/12/01 01:25:52;;;;;;;;;;;;;;;8.42;nan;102988.59;5083898;28;20454;-34
2022/12/01 01:28:18;;;;;;;;;;;;;;;8.41;nan;102986.94;5085238;28;20438;-34
2022/12/01 01:30:44;;;;;;;;;;;;;;;8.43;nan;102987.59;5085183;28;19916;-34
2022/12/01 01:33:09;;;;;;;;;;;;;;;8.45;nan;102990.13;5083750;28;19923;-34
2022/12/01 01:35:34;;;;;;;;;;;;;;;8.45;nan;102990.13;5085454;28;20151;-34
2022/12/01 01:38:00;;;;;;;;;;;;;;;8.46;nan;102994.44;5084942;28;20492;-34
2022/12/01 01:40:25;;;;;;;;;;;;;;;8.47;nan;102993.44;5087611;28;19916;-34
2022/12/01 01:42:50;;;;;;;;;;;;;;;8.45;nan;102987.44;5082953;28;19999;-35
2022/12/01 01:45:20;;;;;;;;;;;;;;;8.43;nan;102989.44;5080589;28;19916;-34
2022/12/01 01:47:45;;;;;;;;;;;;;;;8.39;nan;102985.47;5083936;28;19916;-35
2022/12/01 01:50:13;;;;;;;;;;;;;;;8.32;nan;102987.19;5085114;28;19923;-35
2022/12/01 01:52:41;;;;;;;;;;;;;;;8.30;nan;102989.19;5084900;28;19920;-36
2022/12/01 01:55:07;;;;;;;;;;;;;;;8.31;nan;102983.69;5083636;28;19971;-34
2022/12/01 01:57:33;;;;;;;;;;;;;;;8.32;nan;102987.19;5080445;28;19977;-34
2022/12/01 02:00:02;;;;;;;;;;;;;;;8.32;nan;102984.50;5085569;28;19927;-35
2022/12/01 02:02:28;;;;;;;;;;;;;;;8.30;nan;102978.50;5083078;28;19920;-35
2022/12/01 02:04:59;;;;;;;;;;;;;;;8.31;nan;102981.00;5083954;28;20295;-34
2022/12/01 02:07:25;;;;;;;;;;;;;;;8.30;nan;102982.00;5082519;28;19916;-35
2022/12/01 02:09:50;;;;;;;;;;;;;;;8.27;nan;102978.88;5082788;28;19939;-35
2022/12/01 02:12:19;;;;;;;;;;;;;;;8.22;nan;102991.91;5065700;28;20398;-34
2022/12/01 02:14:56;;;;;;;;;;;;;;;8.17;nan;102989.78;5102745;22;19924;-32
2022/12/01 02:17:22;;;;;;;;;;;;;;;8.16;nan;102991.63;5077050;28;19957;-32
2022/12/01 02:19:56;;;;;;;;;;;;;;;8.17;nan;102984.44;5084886;28;20290;-32
2022/12/01 02:22:22;;;;;;;;;;;;;;;8.17;nan;102990.59;5079211;28;19977;-31
2022/12/01 02:24:55;;;;;;;;;;;;;;;8.17;nan;102987.94;5085444;28;19912;-33
2022/12/01 02:27:23;;;;;;;;;;;;;;;8.19;nan;102985.91;5080008;28;19970;-31
2022/12/01 02:29:49;;;;;;;;;;;;;;;8.21;nan;102979.56;5085312;28;20438;-32
2022/12/01 02:32:14;;;;;;;;;;;;;;;8.22;nan;102991.91;5091653;28;19963;-32
2022/12/01 02:34:43;;;;;;;;;;;;;;;8.25;nan;102989.72;5090039;28;19970;-33
2022/12/01 02:37:21;;;;;;;;;;;;;;;8.27;nan;102981.53;5090097;28;19963;-32
2022/12/01 02:39:56;;;;;;;;;;;;;;;8.27;nan;102985.03;5086439;28;19912;-32
2022/12/01 02:42:48;;;;;;;;;;;;;;;8.26;nan;102980.72;5086025;28;19996;-32
2022/12/01 02:45:17;;;;;;;;;;;;;;;8.26;nan;102971.84;5082564;28;20059;-32
2022/12/01 02:47:44;;;;;;;;;;;;;;;8.28;nan;102976.03;5084389;28;19924;-32
2022/12/01 02:50:10;;;;;;;;;;;;;;;8.25;nan;102975.53;5084849;28;19924;-32
2022/12/01 02:52:36;;;;;;;;;;;;;;;8.19;nan;102983.25;5085530;28;19923;-32
2022/12/01 02:55:01;;;;;;;;;;;;;;;8.14;nan;102982.13;5088992;28;19928;-32
2022/12/01 02:57:28;;;;;;;;;;;;;;;8.10;nan;102983.50;5083418;28;20395;-32
2022/12/01 02:59:54;;;;;;;;;;;;;;;8.10;nan;102979.00;5080172;28;20003;-32
2022/12/01 03:02:26;;;;;;;;;;;;;;;8.09;nan;102980.00;5077908;28;20023;-32
2022/12/01 03:04:54;;;;;;;;;;;;;;;8.09;nan;102977.31;5078688;28;19916;-32
2022/12/01 03:07:38;;;;;;;;;;;;;;;8.07;nan;102978.47;5082625;28;19916;-31
2022/12/01 03:10:03;;;;;;;;;;;;;;;8.07;nan;102979.31;5076518;28;20033;-32
2022/12/01 03:12:55;;;;;;;;;;;;;;;8.05;nan;102981.34;5085019;28;20379;-31
2022/12/01 03:15:23;;;;;;;;;;;;;;;8.02;nan;102983.53;5075267;28;19927;-32
2022/12/01 03:17:54;;;;;;;;;;;;;;;7.98;nan;102980.38;5083982;28;19913;-32
2022/12/01 03:20:43;;;;;;;;;;;;;;;7.98;nan;102980.38;5083594;28;20326;-31
2022/12/01 03:23:11;;;;;;;;;;;;;;;7.88;nan;102979.78;5047384;28;21145;-32
2022/12/01 03:25:38;;;;;;;;;;;;;;;7.91;nan;102979.44;5085012;28;20276;-31
2022/12/01 03:28:05;;;;;;;;;;;;;;;7.86;nan;102982.63;5087532;28;19946;-32
2022/12/01 03:30:32;;;;;;;;;;;;;;;7.81;nan;102989.50;5084988;28;19955;-31
2022/12/01 03:33:03;;;;;;;;;;;;;;;7.74;nan;102983.22;5085728;28;20409;-32
2022/12/01 03:35:32;;;;;;;;;;;;;;;7.77;nan;102975.69;5080747;28;19935;-32
2022/12/01 03:38:17;;;;;;;;;;;;;;;7.80;nan;102977.16;5077767;28;19916;-31
2022/12/01 03:40:45;;;;;;;;;;;;;;;7.82;nan;102975.16;5085882;28;20121;-32
2022/12/01 03:43:12;;;;;;;;;;;;;;;7.80;nan;102972.66;5081862;28;20330;-32
2022/12/01 03:45:56;;;;;;;;;;;;;;;7.79;nan;102975.50;5086161;28;19919;-32
2022/12/01 03:48:23;;;;;;;;;;;;;;;7.76;nan;102975.84;5078818;28;19927;-32
2022/12/01 03:51:01;;;;;;;;;;;;;;;7.78;nan;102980.00;5082819;28;19916;-32
2022/12/01 03:53:29;;;;;;;;;;;;;;;7.80;nan;102982.50;5085996;28;19965;-32
2022/12/01 03:56:00;;;;;;;;;;;;;;;7.78;nan;102984.50;5081714;28;19917;-33
2022/12/01 03:58:44;;;;;;;;;;;;;;;7.78;nan;102984.50;5083230;28;19916;-32
2022/12/01 04:01:10;;;;;;;;;;;;;;;7.75;nan;102984.88;5087096;28;19931;-32
2022/12/01 04:03:36;;;;;;;;;;;;;;;7.70;nan;102987.22;5086738;28;20299;-31
2022/12/01 04:06:01;;;;;;;;;;;;;;;7.69;nan;102983.72;5084389;28;19924;-32
2022/12/01 04:08:26;;;;;;;;;;;;;;;7.64;nan;102990.59;5072480;28;20399;-31
2022/12/01 04:10:52;;;;;;;;;;;;;;;7.56;nan;102997.63;5085227;28;20448;-32
2022/12/01 04:13:24;;;;;;;;;;;;;;;7.54;nan;102985.44;5090591;28;19922;-32
2022/12/01 04:15:50;;;;;;;;;;;;;;;7.50;nan;102994.81;5089868;28;19946;-31
2022/12/01 04:18:16;;;;;;;;;;;;;;;7.49;nan;102995.81;5082604;28;19920;-31
2022/12/01 04:20:42;;;;;;;;;;;;;;;7.54;nan;102993.44;5083353;28;19959;-32
2022/12/01 04:23:08;;;;;;;;;;;;;;;7.57;nan;102993.94;5089450;28;19916;-31
2022/12/01 04:25:33;;;;;;;;;;;;;;;7.65;nan;102994.91;5089295;28;19978;-31
2022/12/01 04:27:58;;;;;;;;;;;;;;;7.71;nan;102994.22;5090008;28;20034;-32
2022/12/01 04:30:24;;;;;;;;;;;;;;;7.73;nan;102992.22;5086518;28;19916;-32
2022/12/01 04:32:49;;;;;;;;;;;;;;;7.72;nan;102995.88;5081414;28;19916;-32
2022/12/01 04:35:14;;;;;;;;;;;;;;;7.72;nan;102999.41;5082438;28;20333;-31
2022/12/01 04:37:40;;;;;;;;;;;;;;;7.72;nan;102994.06;5084357;28;20367;-32
2022/12/01 04:40:05;;;;;;;;;;;;;;;7.72;nan;103001.19;5090219;28;19915;-31
2022/12/01 04:42:31;;;;;;;;;;;;;;;7.74;nan;103009.91;5089501;28;20375;-31
2022/12/01 04:44:56;;;;;;;;;;;;;;;7.74;nan;103005.38;5088145;28;19920;-32
2022/12/01 04:47:21;;;;;;;;;;;;;;;7.70;nan;103003.22;5084028;28;20335;-31
2022/12/01 04:49:47;;;;;;;;;;;;;;;7.72;nan;103006.53;5084138;28;20407;-32
2022/12/01 04:52:12;;;;;;;;;;;;;;;7.77;nan;103009.53;5080545;28;19923;-32
2022/12/01 04:54:37;;;;;;;;;;;;;;;7.77;nan;103002.38;5086744;28;20071;-32
2022/12/01 04:57:03;;;;;;;;;;;;;;;7.71;nan;103010.22;5088030;28;20047;-32
2022/12/01 04:59:28;;;;;;;;;;;;;;;7.68;nan;103005.22;5083905;28;19927;-32
2022/12/01 05:01:53;;;;;;;;;;;;;;;7.70;nan;103008.56;5084617;28;20004;-31
2022/12/01 05:04:19;;;;;;;;;;;;;;;7.69;nan;103010.38;5084854;28;19917;-32
2022/12/01 05:06:44;;;;;;;;;;;;;;;7.66;nan;103008.06;5085165;28;19915;-31
2022/12/01 05:09:11;;;;;;;;;;;;;;;7.69;nan;103007.72;5081639;28;19946;-32
2022/12/01 05:11:37;;;;;;;;;;;;;;;7.74;nan;103010.72;5084335;28;19924;-31
2022/12/01 05:14:02;;;;;;;;;;;;;;;7.78;nan;103004.03;5084089;28;19919;-31
2022/12/01 05:16:30;;;;;;;;;;;;;;;7.73;nan;103009.06;5089539;28;20426;-32
2022/12/01 05:21:42;;;;;;;;;;;;;;;7.85;nan;103009.47;5080379;28;19923;-32
2022/12/01 05:24:08;;;;;;;;;;;;;;;7.88;nan;103009.13;5087020;28;19924;-31
2022/12/01 05:26:33;;;;;;;;;;;;;;;7.89;nan;103013.47;5082690;28;19941;-33
2022/12/01 05:28:58;;;;;;;;;;;;;;;7.94;nan;103003.13;5088505;28;19991;-32
2022/12/01 05:31:24;;;;;;;;;;;;;;;7.95;nan;103010.13;5081313;28;19931;-32
2022/12/01 05:33:49;;;;;;;;;;;;;;;7.99;nan;103002.56;5082383;28;19968;-33
2022/12/01 05:36:14;;;;;;;;;;;;;;;8.02;nan;103007.56;5088716;28;19930;-32
2022/12/01 05:38:40;;;;;;;;;;;;;;;8.02;nan;103011.06;5087583;28;19916;-32
2022/12/01 05:41:05;;;;;;;;;;;;;;;7.97;nan;103005.44;5087343;28;19947;-32
2022/12/01 05:43:30;;;;;;;;;;;;;;;7.95;nan;103012.78;5081259;28;19916;-32
2022/12/01 05:45:56;;;;;;;;;;;;;;;7.96;nan;103003.75;5083114;28;19919;-32
2022/12/01 05:48:21;;;;;;;;;;;;;;;7.96;nan;103005.59;5086014;28;19935;-32
2022/12/01 05:50:47;;;;;;;;;;;;;;;7.92;nan;103007.81;5085953;28;19920;-32
2022/12/01 05:53:12;;;;;;;;;;;;;;;7.93;nan;103016.63;5084203;28;19990;-32
2022/12/01 05:55:38;;;;;;;;;;;;;;;7.89;nan;103014.28;5081508;28;20010;-32
2022/12/01 05:58:03;;;;;;;;;;;;;;;7.92;nan;103013.13;5077221;28;19945;-31
2022/12/01 06:00:29;;;;;;;;;;;;;;;7.92;nan;103017.66;5086840;28;19919;-31
2022/12/01 06:02:54;;;;;;;;;;;;;;;7.87;nan;103021.66;5075910;28;19927;-32
2022/12/01 06:05:19;;;;;;;;;;;;;;;7.88;nan;103014.47;5078972;28;20294;-32
2022/12/01 06:07:45;;;;;;;;;;;;;;;7.85;nan;103018.31;5086574;28;20007;-32
2022/12/01 06:10:11;;;;;;;;;;;;;;;7.82;nan;103012.50;5081817;28;20144;-32
2022/12/01 06:12:37;;;;;;;;;;;;;;;7.84;nan;103023.84;5083623;28;20011;-32
2022/12/01 06:15:03;;;;;;;;;;;;;;;7.84;nan;103026.50;5084062;28;20023;-31
2022/12/01 06:17:28;;;;;;;;;;;;;;;7.83;nan;103023.00;5083479;28;19958;-32
2022/12/01 06:19:54;;;;;;;;;;;;;;;7.82;nan;103032.03;5083769;28;19959;-32
2022/12/01 06:22:19;;;;;;;;;;;;;;;7.83;nan;103040.84;5082262;28;20339;-32
2022/12/01 06:24:44;;;;;;;;;;;;;;;7.83;nan;103041.69;5082322;28;19933;-32
2022/12/01 06:27:10;;;;;;;;;;;;;;;7.85;nan;103044.19;5086522;28;19949;-32
2022/12/01 06:29:35;;;;;;;;;;;;;;;7.84;nan;103045.19;5081655;28;20325;-32
2022/12/01 06:32:01;;;;;;;;;;;;;;;7.82;nan;103047.19;5088285;28;19916;-31
2022/12/01 06:34:26;;;;;;;;;;;;;;;7.83;nan;103051.53;5085944;28;20407;-32
2022/12/01 06:36:51;;;;;;;;;;;;;;;7.82;nan;103044.53;5084631;28;20000;-32
2022/12/01 06:39:17;;;;;;;;;;;;;;;7.79;nan;103044.88;5088610;28;19916;-32
2022/12/01 06:41:42;;;;;;;;;;;;;;;7.76;nan;103046.06;5088470;28;19958;-31
2022/12/01 06:44:09;;;;;;;;;;;;;;;7.79;nan;103044.88;5083570;28;19920;-32
2022/12/01 06:46:34;;;;;;;;;;;;;;;7.81;nan;103048.22;5089350;28;19927;-32
2022/12/01 06:49:00;;;;;;;;;;;;;;;7.86;nan;103048.50;5077193;28;19916;-31
2022/12/01 06:51:25;;;;;;;;;;;;;;;7.90;nan;103052.53;5078128;28;20403;-32
2022/12/01 06:53:54;;;;;;;;;;;;;;;7.95;nan;103054.66;5081695;28;20278;-32
2022/12/01 06:56:20;;;;;;;;;;;;;;;7.95;nan;103052.81;5082228;28;19920;-31
2022/12/01 06:58:45;;;;;;;;;;;;;;;7.96;nan;103056.31;5079415;28;20462;-31
2022/12/01 07:01:11;;;;;;;;;;;;;;;7.99;nan;103055.97;5080342;28;19941;-32
2022/12/01 07:03:36;;;;;;;;;;;;;;;7.99;nan;103066.66;5084763;28;19920;-32
2022/12/01 07:06:02;;;;;;;;;;;;;;;8.00;nan;103058.47;5085191;28;19959;-31
2022/12/01 07:08:28;;;;;;;;;;;;;;;8.02;nan;103060.97;5079136;28;19916;-32
2022/12/01 07:11:01;;;;;;;;;;;;;;;7.95;nan;103058.16;5084552;28;19916;-31
2022/12/01 07:13:26;;;;;;;;;;;;;;;7.93;nan;103057.50;5086054;28;19916;-32
2022/12/01 07:15:51;;;;;;;;;;;;;;;7.94;nan;103059.16;5081174;28;19954;-32
2022/12/01 07:18:17;;;;;;;;;;;;;;;7.96;nan;103054.47;5087410;28;19923;-32
2022/12/01 07:20:42;;;;;;;;;;;;;;;7.98;nan;103052.47;5083441;28;19920;-32
2022/12/01 07:23:07;;;;;;;;;;;;;;;8.00;nan;103055.78;5086603;28;20042;-31
2022/12/01 07:25:33;;;;;;;;;;;;;;;8.04;nan;103058.94;5085462;28;19923;-32
2022/12/01 07:27:58;;;;;;;;;;;;;;;8.07;nan;103054.06;5087315;28;20121;-31
2022/12/01 07:30:23;;;;;;;;;;;;;;;8.11;nan;103055.41;5083490;28;20207;-32
2022/12/01 07:32:49;;;;;;;;;;;;;;;8.10;nan;103052.91;5084120;28;20451;-32
2022/12/01 07:35:14;;;;;;;;;;;;;;;8.11;nan;103054.59;5085372;28;19920;-31
2022/12/01 07:37:39;;;;;;;;;;;;;;;8.09;nan;103070.78;5089047;28;19916;-32
2022/12/01 07:40:09;;;;;;;;;;;;;;;8.04;nan;103062.44;5082370;28;19912;-31
2022/12/01 07:42:34;;;;;;;;;;;;;;;8.07;nan;103063.91;5084259;28;19927;-32
2022/12/01 07:44:59;;;;;;;;;;;;;;;8.12;nan;103054.41;5089038;28;20299;-31
2022/12/01 07:47:25;;;;;;;;;;;;;;;8.16;nan;103053.03;5085923;28;19958;-32
2022/12/01 07:49:50;;;;;;;;;;;;;;;8.18;nan;103059.03;5084812;28;19962;-31
2022/12/01 07:52:15;;;;;;;;;;;;;;;8.22;nan;103056.84;5087632;28;20243;-32
2022/12/01 07:54:41;;;;;;;;;;;;;;;8.28;nan;103066.00;5090870;28;20220;-31
2022/12/01 07:57:06;;;;;;;;;;;;;;;8.30;nan;103058.63;5085843;28;19916;-32
2022/12/01 07:59:31;;;;;;;;;;;;;;;8.28;nan;103058.81;5090740;28;19986;-31
2022/12/01 08:01:57;;;;;;;;;;;;;;;8.29;nan;103062.31;5087739;28;19923;-32
2022/12/01 08:04:22;;;;;;;;;;;;;;;8.31;nan;103066.47;5091034;28;19931;-32
2022/12/01 08:06:47;;;;;;;;;;;;;;;8.35;nan;103067.81;5086183;28;19922;-32
2022/12/01 08:09:13;;;;;;;;;;;;;;;8.37;nan;103064.97;5083378;28;19939;-33
2022/12/01 08:11:38;;;;;;;;;;;;;;;8.37;nan;103064.97;5089433;28;20371;-31
2022/12/01 08:14:03;;;;;;;;;;;;;;;8.37;nan;103065.78;5085907;28;19920;-32
2022/12/01 08:16:30;;;;;;;;;;;;;;;8.30;nan;103066.66;5087227;28;19968;-31
2022/12/01 08:18:55;;;;;;;;;;;;;;;8.21;nan;103070.38;5083400;28;20070;-31
2022/12/01 08:21:22;;;;;;;;;;;;;;;8.25;nan;103069.84;5087379;28;20395;-32
2022/12/01 08:23:47;;;;;;;;;;;;;;;8.22;nan;103064.00;5083135;28;19916;-31
2022/12/01 08:26:14;;;;;;;;;;;;;;;8.24;nan;103073.50;5087416;28;19920;-32
2022/12/01 08:28:39;;;;;;;;;;;;;;;8.27;nan;103075.84;5085895;28;20024;-32
2022/12/01 08:31:23;;;;;;;;;;;;;;;8.33;nan;103071.63;5091634;28;20349;-32
2022/12/01 08:33:49;;;;;;;;;;;;;;;8.37;nan;103083.66;5087247;28;19989;-32
2022/12/01 08:36:15;;;;;;;;;;;;;;;8.29;nan;103081.03;5092273;28;20398;-33
2022/12/01 08:38:43;;;;;;;;;;;;;;;8.32;nan;103078.81;5090414;28;19919;-32
2022/12/01 08:41:09;;;;;;;;;;;;;;;8.37;nan;103078.31;5085177;28;19924;-31
2022/12/01 08:43:39;;;;;;;;;;;;;;;8.36;nan;103088.16;5093130;27;19942;-32
2022/12/01 08:46:05;;;;;;;;;;;;;;;8.34;nan;103076.84;5087228;28;19916;-32
2022/12/01 08:48:30;;;;;;;;;;;;;;;8.38;nan;103074.63;5090909;28;20071;-32
2022/12/01 08:51:05;;;;;;;;;;;;;;;8.43;nan;103075.75;5093092;28;19974;-32
2022/12/01 08:53:31;;;;;;;;;;;;;;;8.46;nan;103080.78;5087811;28;20398;-32
2022/12/01 08:56:00;;;;;;;;;;;;;;;8.52;nan;103086.41;5086423;28;20018;-32
2022/12/01 08:58:26;;;;;;;;;;;;;;;8.53;nan;103085.41;5088409;28;20198;-32
2022/12/01 09:00:51;;;;;;;;;;;;;;;8.55;nan;103094.91;5085794;28;20387;-32
2022/12/01 09:03:17;;;;;;;;;;;;;;;8.52;nan;103086.41;5090611;28;20399;-32
2022/12/01 09:05:42;;;;;;;;;;;;;;;8.50;nan;103096.44;5086522;28;20239;-31
2022/12/01 09:10:52;;;;;;;;;;;;;;;8.53;nan;103094.25;5091534;28;19922;-31
2022/12/01 09:13:17;;;;;;;;;;;;;;;8.56;nan;103095.72;5089236;28;19916;-32
2022/12/01 09:15:42;;;;;;;;;;;;;;;8.58;nan;103086.53;5086399;28;19923;-31
2022/12/01 09:18:08;;;;;;;;;;;;;;;8.57;nan;103082.19;5088295;28;20181;-32
2022/12/01 09:20:33;;;;;;;;;;;;;;;8.55;nan;103092.22;5089645;28;20018;-32
2022/12/01 09:22:58;;;;;;;;;;;;;;;8.56;nan;103082.38;5090271;28;19927;-32
2022/12/01 09:25:24;;;;;;;;;;;;;;;8.58;nan;103085.69;5090860;28;19995;-32
2022/12/01 09:27:50;;;;;;;;;;;;;;;8.60;nan;103081.81;5091241;28;19920;-32
2022/12/01 09:30:15;;;;;;;;;;;;;;;8.63;nan;103081.50;5085083;28;20362;-32
2022/12/01 09:32:41;;;;;;;;;;;;;;;8.62;nan;103084.34;5085585;28;19917;-32
2022/12/01 09:35:06;;;;;;;;;;;;;;;8.63;nan;103088.69;5084282;28;20283;-33
2022/12/01 09:37:31;;;;;;;;;;;;;;;8.67;nan;103087.31;5086399;28;19927;-32
2022/12/01 09:39:57;;;;;;;;;;;;;;;8.59;nan;103090.84;5090089;28;19924;-32
2022/12/01 09:42:26;;;;;;;;;;;;;;;8.62;nan;103079.84;5082774;28;20252;-32
2022/12/01 09:44:56;;;;;;;;;;;;;;;8.69;nan;103077.28;5089212;28;19916;-32
2022/12/01 09:47:27;;;;;;;;;;;;;;;8.69;nan;103070.09;5084143;28;19923;-32
2022/12/01 09:49:56;;;;;;;;;;;;;;;8.64;nan;103075.13;5085172;28;20062;-33
2022/12/01 09:52:23;;;;;;;;;;;;;;;8.68;nan;103071.09;5081444;28;19916;-32
2022/12/01 09:54:49;;;;;;;;;;;;;;;8.75;nan;103074.69;5087106;28;19931;-32
2022/12/01 09:57:32;;;;;;;;;;;;;;;8.81;nan;103067.81;5087069;28;20296;-32
2022/12/01 09:59:59;;;;;;;;;;;;;;;8.83;nan;103070.31;5086670;28;20015;-32
2022/12/01 10:02:36;;;;;;;;;;;;;;;8.85;nan;103063.78;5090950;28;19969;-31
2022/12/01 10:05:04;;;;;;;;;;;;;;;8.86;nan;103060.09;5086321;28;19916;-31
2022/12/01 10:07:31;;;;;;;;;;;;;;;8.82;nan;103057.97;5084221;28;20006;-32
2022/12/01 10:10:01;;;;;;;;;;;;;;;8.73;nan;103052.66;5086360;28;20299;-32
2022/12/01 10:12:32;;;;;;;;;;;;;;;8.69;nan;103059.38;5084209;28;20006;-33
2022/12/01 10:15:04;;;;;;;;;;;;;;;8.69;nan;103056.72;5087835;28;19929;-32
2022/12/01 10:17:39;;;;;;;;;;;;;;;8.62;nan;103049.59;5082361;28;19931;-32
2022/12/01 10:20:21;;;;;;;;;;;;;;;8.62;nan;103050.44;5089253;28;19916;-32
2022/12/01 10:22:49;;;;;;;;;;;;;;;8.71;nan;103052.03;5085303;28;20018;-32
2022/12/01 10:25:23;;;;;;;;;;;;;;;8.67;nan;103045.38;5088028;28;19940;-32
2022/12/01 10:28:00;;;;;;;;;;;;;;;8.64;nan;103044.91;5083057;28;19920;-32
2022/12/01 10:30:26;;;;;;;;;;;;;;;8.68;nan;103041.69;5082947;28;19920;-32
2022/12/01 10:32:57;;;;;;;;;;;;;;;8.67;nan;103042.72;5086830;28;19923;-32
2022/12/01 10:35:23;;;;;;;;;;;;;;;8.71;nan;103041.34;5083242;28;19942;-31
2022/12/01 10:37:57;;;;;;;;;;;;;;;8.69;nan;103040.69;5089407;28;19947;-32
2022/12/01 10:40:23;;;;;;;;;;;;;;;8.72;nan;103036.81;5089001;28;19923;-32
2022/12/01 10:42:49;;;;;;;;;;;;;;;8.71;nan;103032.47;5082604;28;19927;-32
2022/12/01 10:45:17;;;;;;;;;;;;;;;8.74;nan;103027.59;5085912;28;19923;-32
2022/12/01 10:48:01;;;;;;;;;;;;;;;8.75;nan;103031.94;5086893;28;20383;-32
2022/12/01 10:50:27;;;;;;;;;;;;;;;8.71;nan;103029.81;5087135;28;19924;-32
2022/12/01 10:52:52;;;;;;;;;;;;;;;8.74;nan;103030.28;5084608;28;20018;-32
2022/12/01 10:55:28;;;;;;;;;;;;;;;8.78;nan;103031.56;5088252;28;20015;-33
2022/12/01 10:57:55;;;;;;;;;;;;;;;8.82;nan;103036.59;5085063;28;19924;-32
2022/12/01 11:00:22;;;;;;;;;;;;;;;8.77;nan;103026.41;5087739;28;20391;-32
2022/12/01 11:02:47;;;;;;;;;;;;;;;8.72;nan;103036.81;5083352;28;20016;-32
2022/12/01 11:05:27;;;;;;;;;;;;;;;8.68;nan;103027.50;5084843;28;20446;-32
2022/12/01 11:07:52;;;;;;;;;;;;;;;8.71;nan;103030.63;5087590;28;19920;-32
2022/12/01 11:10:25;;;;;;;;;;;;;;;8.78;nan;103028.91;5089674;28;20331;-31
2022/12/01 11:12:55;;;;;;;;;;;;;;;8.84;nan;103026.53;5087590;28;20319;-32
2022/12/01 11:15:29;;;;;;;;;;;;;;;8.85;nan;103020.19;5089516;28;20383;-32
2022/12/01 11:17:56;;;;;;;;;;;;;;;8.85;nan;103025.53;5082266;28;19916;-32
2022/12/01 11:20:26;;;;;;;;;;;;;;;8.83;nan;103020.34;5081087;28;19916;-32
2022/12/01 11:22:51;;;;;;;;;;;;;;;8.83;nan;103020.34;5082626;28;19939;-31
2022/12/01 11:25:20;;;;;;;;;;;;;;;8.82;nan;103028.56;5082599;28;19920;-32
2022/12/01 11:27:50;;;;;;;;;;;;;;;8.81;nan;103017.03;5086730;28;19969;-32
2022/12/01 11:30:21;;;;;;;;;;;;;;;8.81;nan;103016.22;5081217;28;19916;-32
2022/12/01 11:32:51;;;;;;;;;;;;;;;8.83;nan;103016.84;5088668;28;20303;-32
2022/12/01 11:35:21;;;;;;;;;;;;;;;8.86;nan;103019.16;5082020;28;20356;-33
2022/12/01 11:37:48;;;;;;;;;;;;;;;8.87;nan;103028.84;5080647;28;20189;-32
2022/12/01 11:40:23;;;;;;;;;;;;;;;8.88;nan;103014.47;5084874;28;19920;-32
2022/12/01 11:42:50;;;;;;;;;;;;;;;8.92;nan;103019.25;5084152;28;20022;-32
2022/12/01 11:45:33;;;;;;;;;;;;;;;8.98;nan;103020.41;5083871;28;19916;-33
2022/12/01 11:48:01;;;;;;;;;;;;;;;8.98;nan;103025.75;5082493;28;19973;-32
2022/12/01 11:50:28;;;;;;;;;;;;;;;8.96;nan;103022.38;5088751;28;19935;-32
2022/12/01 11:52:53;;;;;;;;;;;;;;;8.95;nan;103026.06;5085811;28;19920;-32
2022/12/01 11:55:21;;;;;;;;;;;;;;;8.97;nan;103030.22;5082998;28;19977;-32
2022/12/01 11:57:48;;;;;;;;;;;;;;;9.01;nan;103030.72;5085725;28;20145;-32
2022/12/01 12:00:14;;;;;;;;;;;;;;;9.04;nan;103039.19;5083393;28;19927;-32
2022/12/01 12:03:04;;;;;;;;;;;;;;;9.08;nan;103026.28;5083857;28;20440;-32
2022/12/01 12:05:48;;;;;;;;;;;;;;;9.06;nan;103023.81;5083014;28;19920;-32
2022/12/01 12:08:19;;;;;;;;;;;;;;;9.07;nan;103024.63;5086548;28;19916;-33
2022/12/01 12:11:08;;;;;;;;;;;;;;;9.11;nan;103020.56;5084394;28;20287;-32
2022/12/01 12:13:39;;;;;;;;;;;;;;;9.12;nan;103024.91;5042157;28;20043;-32
2022/12/01 12:16:28;;;;;;;;;;;;;;;9.13;nan;103029.25;5082238;28;20298;-32
2022/12/01 12:18:56;;;;;;;;;;;;;;;9.13;nan;103031.09;5076421;28;19927;-32
2022/12/01 12:21:33;;;;;;;;;;;;;;;9.12;nan;103022.22;5086563;28;20342;-32
2022/12/01 12:24:11;;;;;;;;;;;;;;;9.14;nan;103020.19;5086183;28;19922;-32
2022/12/01 12:26:48;;;;;;;;;;;;;;;9.15;nan;103021.88;5088967;28;20002;-32
2022/12/01 12:29:18;;;;;;;;;;;;;;;9.16;nan;103018.19;5085130;28;19926;-32
2022/12/01 12:31:43;;;;;;;;;;;;;;;9.14;nan;103017.53;5080842;28;21619;-32
2022/12/01 12:34:11;;;;;;;;;;;;;;;9.11;nan;103012.56;5086184;28;19924;-32
2022/12/01 12:36:53;;;;;;;;;;;;;;;9.06;nan;103007.75;5088433;28;19944;-32
2022/12/01 12:39:37;;;;;;;;;;;;;;;9.06;nan;103007.75;5091788;28;19923;-32
2022/12/01 12:42:07;;;;;;;;;;;;;;;9.07;nan;103009.41;5084285;28;20348;-32
2022/12/01 12:44:32;;;;;;;;;;;;;;;9.07;nan;103005.91;5091410;28;19916;-31
2022/12/01 12:46:57;;;;;;;;;;;;;;;9.08;nan;103005.72;5087573;28;19969;-32
2022/12/01 12:49:26;;;;;;;;;;;;;;;9.11;nan;103012.56;5091394;28;20336;-33
2022/12/01 12:51:57;;;;;;;;;;;;;;;9.14;nan;103014.84;5086735;28;20409;-32
2022/12/01 12:54:31;;;;;;;;;;;;;;;9.15;nan;103005.81;5089786;28;20291;-32
2022/12/01 12:57:02;;;;;;;;;;;;;;;9.15;nan;103010.34;5088760;28;19931;-32
2022/12/01 12:59:50;;;;;;;;;;;;;;;9.12;nan;103000.84;5080505;28;19958;-33
2022/12/01 13:02:19;;;;;;;;;;;;;;;9.14;nan;103006.81;5073251;28;19919;-32
2022/12/01 13:04:52;;;;;;;;;;;;;;;9.17;nan;103000.31;5084972;28;19927;-33
2022/12/01 13:07:38;;;;;;;;;;;;;;;9.18;nan;102994.78;5081597;28;20478;-32
2022/12/01 13:10:38;;;;;;;;;;;;;;;9.21;nan;102993.56;5071316;28;20020;-32
2022/12/01 13:13:16;;;;;;;;;;;;;;;9.22;nan;102990.72;5022509;28;19929;-32
2022/12/01 13:15:42;;;;;;;;;;;;;;;9.18;nan;102991.28;5075690;28;20309;-32
2022/12/01 13:18:14;;;;;;;;;;;;;;;9.19;nan;102993.75;5083225;28;19921;-33
2022/12/01 13:20:40;;;;;;;;;;;;;;;9.18;nan;102997.44;5081587;28;19970;-32